Time;durP1;ratioP1;P1;durP2;ratioP2;P2;SDS_P1;SDS_P2;PMS_P1;PMS_P2;Temp;Humidity;BMP_temperature;BMP_pressure;BME280_temperature;BME280_humidity;BME280_pressure;Samples;Min_cycle;Max_cycle;Signal;HPM_P1;HPM_P2
2022/05/31 00:00:49;;;;;;;3.22;1.90;;;9.30;99.90;;;;;;4231386;28;20043;-83
2022/05/31 00:02:50;;;;;;;3.17;2.25;;;9.60;99.90;;;;;;4231405;28;20126;-83
2022/05/31 00:04:51;;;;;;;4.18;2.10;;;9.30;99.90;;;;;;4230999;28;20046;-83
2022/05/31 00:06:52;;;;;;;2.90;1.65;;;9.40;99.90;;;;;;4231281;28;20488;-83
2022/05/31 00:08:53;;;;;;;2.50;1.77;;;9.60;99.90;;;;;;4231203;28;20050;-83
2022/05/31 00:10:54;;;;;;;4.90;1.83;;;9.20;99.90;;;;;;4230922;28;20047;-83
2022/05/31 00:12:54;;;;;;;4.40;2.20;;;9.60;99.90;;;;;;4230488;28;20492;-83
2022/05/31 00:14:55;;;;;;;4.22;3.00;;;9.30;99.90;;;;;;4231037;28;20039;-83
2022/05/31 00:16:56;;;;;;;5.00;2.25;;;9.20;99.90;;;;;;4231067;28;20051;-83
2022/05/31 00:18:57;;;;;;;3.85;2.53;;;9.30;99.90;;;;;;4231124;28;20108;-83
2022/05/31 00:20:58;;;;;;;3.80;2.15;;;9.60;99.90;;;;;;4212709;28;20393;-83
2022/05/31 00:22:59;;;;;;;2.33;1.88;;;9.70;99.90;;;;;;4230527;28;20050;-83
2022/05/31 00:24:59;;;;;;;4.85;1.73;;;9.70;99.90;;;;;;4230654;28;20036;-83
2022/05/31 00:27:03;;;;;;;4.43;1.88;;;9.40;99.90;;;;;;4213147;28;20582;-83
2022/05/31 00:29:07;;;;;;;3.47;1.90;;;9.40;99.90;;;;;;4231033;28;20057;-83
2022/05/31 00:31:08;;;;;;;3.72;2.00;;;9.60;99.90;;;;;;4230936;28;20044;-83
2022/05/31 00:33:10;;;;;;;2.92;1.90;;;9.50;99.90;;;;;;4230379;28;20540;-83
2022/05/31 00:35:24;;;;;;;2.70;1.70;;;9.40;99.90;;;;;;4230952;28;20036;-83
2022/05/31 00:37:25;;;;;;;4.65;1.58;;;9.30;99.90;;;;;;4229471;28;20557;-83
2022/05/31 00:39:26;;;;;;;4.30;1.60;;;9.40;99.90;;;;;;4212443;28;20051;-83
2022/05/31 00:41:26;;;;;;;3.30;1.98;;;9.40;99.90;;;;;;4230789;28;20043;-82
2022/05/31 00:43:27;;;;;;;4.43;1.70;;;9.50;99.90;;;;;;4230408;28;20040;-83
2022/05/31 00:45:48;;;;;;;2.72;1.70;;;9.30;99.90;;;;;;4230431;28;20388;-83
2022/05/31 00:47:49;;;;;;;2.92;2.10;;;9.30;99.90;;;;;;4230562;28;20048;-82
2022/05/31 00:50:09;;;;;;;2.83;1.50;;;9.40;99.90;;;;;;4230457;28;20043;-83
2022/05/31 00:52:25;;;;;;;2.50;1.65;;;9.30;99.90;;;;;;4230178;28;20050;-82
2022/05/31 00:54:29;;;;;;;2.97;1.80;;;9.30;99.90;;;;;;4230713;28;20043;-83
2022/05/31 00:56:31;;;;;;;3.30;2.35;;;9.60;99.90;;;;;;4230686;28;20442;-82
2022/05/31 00:58:36;;;;;;;2.80;2.00;;;9.50;99.90;;;;;;4230365;28;20054;-82
2022/05/31 01:00:39;;;;;;;4.45;2.35;;;9.30;99.90;;;;;;4230759;28;20043;-82
2022/05/31 01:02:42;;;;;;;8.85;2.92;;;9.30;99.90;;;;;;4230624;28;20047;-82
2022/05/31 01:04:49;;;;;;;2.55;1.90;;;9.30;99.90;;;;;;4230341;28;20098;-83
2022/05/31 01:06:49;;;;;;;2.40;1.70;;;9.60;99.90;;;;;;4230867;28;20051;-83
2022/05/31 01:08:55;;;;;;;2.58;1.95;;;9.60;99.90;;;;;;4231744;28;20076;-82
2022/05/31 01:10:56;;;;;;;3.13;1.90;;;9.80;99.90;;;;;;4212672;28;20060;-82
2022/05/31 01:12:58;;;;;;;2.13;1.80;;;9.20;99.90;;;;;;4230350;28;20043;-82
2022/05/31 01:14:59;;;;;;;2.50;1.60;;;9.20;99.90;;;;;;4230426;28;20075;-82
2022/05/31 01:17:06;;;;;;;2.38;1.70;;;9.50;99.90;;;;;;4211883;28;20114;-82
2022/05/31 01:19:55;;;;;;;3.92;1.60;;;9.20;99.90;;;;;;4212355;28;20062;-82
2022/05/31 01:21:28;;;;;;;2.38;1.25;;;9.30;99.90;;;;;;4229768;28;20056;-83
2022/05/31 01:23:34;;;;;;;3.92;1.88;;;9.90;99.90;;;;;;4230171;28;20122;-83
2022/05/31 01:25:50;;;;;;;1.67;1.30;;;9.60;99.90;;;;;;4232047;28;20082;-83
2022/05/31 01:28:14;;;;;;;1.30;1.15;;;9.30;99.90;;;;;;4234081;28;20047;-83
2022/05/31 01:30:15;;;;;;;3.70;1.55;;;9.30;99.90;;;;;;4233637;28;20562;-82
2022/05/31 01:32:16;;;;;;;1.45;1.30;;;9.30;99.90;;;;;;4233809;28;20048;-82
2022/05/31 01:34:18;;;;;;;5.00;2.42;;;9.30;99.90;;;;;;4233300;28;20041;-83
2022/05/31 01:36:24;;;;;;;2.38;1.58;;;9.60;99.90;;;;;;4233614;28;20052;-83
2022/05/31 01:38:32;;;;;;;1.83;1.67;;;9.30;99.90;;;;;;4233255;28;20110;-83
2022/05/31 01:40:37;;;;;;;3.88;1.90;;;9.20;99.90;;;;;;4233620;28;20113;-83
2022/05/31 01:42:44;;;;;;;2.65;1.98;;;9.20;99.90;;;;;;4215544;28;20083;-83
2022/05/31 01:44:50;;;;;;;2.10;1.70;;;9.20;99.90;;;;;;4243607;27;20064;-82
2022/05/31 01:46:54;;;;;;;3.03;2.15;;;9.30;99.90;;;;;;4232131;28;20250;-83
2022/05/31 01:48:55;;;;;;;3.28;2.10;;;9.30;99.90;;;;;;4250491;27;20108;-83
2022/05/31 01:50:57;;;;;;;4.15;1.83;;;9.30;99.90;;;;;;4232234;28;20055;-83
2022/05/31 01:52:59;;;;;;;5.07;2.10;;;9.30;99.90;;;;;;4231288;28;20546;-82
2022/05/31 01:55:01;;;;;;;4.78;1.98;;;9.40;99.90;;;;;;4250389;27;20441;-83
2022/05/31 01:57:05;;;;;;;3.28;2.20;;;9.30;99.90;;;;;;4250341;27;20042;-83
2022/05/31 01:59:06;;;;;;;2.78;2.10;;;9.30;99.90;;;;;;4232040;28;20047;-83
2022/05/31 02:01:08;;;;;;;5.30;2.63;;;9.40;99.90;;;;;;4250302;27;20043;-83
2022/05/31 02:03:10;;;;;;;4.50;2.50;;;9.80;99.90;;;;;;4250335;27;20039;-82
2022/05/31 02:05:11;;;;;;;3.33;2.50;;;9.40;99.90;;;;;;4231838;28;20055;-82
2022/05/31 02:07:15;;;;;;;3.58;2.97;;;9.50;99.90;;;;;;4249652;27;20043;-82
2022/05/31 02:09:16;;;;;;;3.63;2.55;;;9.40;99.90;;;;;;4231984;28;20047;-83
2022/05/31 02:11:16;;;;;;;4.78;2.85;;;9.30;99.90;;;;;;4231752;28;20070;-83
2022/05/31 02:13:18;;;;;;;4.70;2.53;;;9.30;99.90;;;;;;4250042;27;20035;-83
2022/05/31 02:15:20;;;;;;;4.15;2.80;;;9.50;99.90;;;;;;4250122;27;20051;-82
2022/05/31 02:17:21;;;;;;;5.18;3.00;;;9.80;99.90;;;;;;4250088;27;20054;-82
2022/05/31 02:19:26;;;;;;;3.80;2.78;;;9.40;99.90;;;;;;4250046;27;20039;-83
2022/05/31 02:21:35;;;;;;;5.07;3.50;;;9.80;99.90;;;;;;4249323;27;20055;-83
2022/05/31 02:23:35;;;;;;;5.03;3.07;;;10.00;99.90;;;;;;4249938;27;20066;-83
2022/05/31 02:25:36;;;;;;;4.90;2.72;;;9.40;99.90;;;;;;4249843;27;20039;-83
2022/05/31 02:27:37;;;;;;;5.47;2.95;;;9.40;99.90;;;;;;4249972;27;20043;-83
2022/05/31 02:29:39;;;;;;;4.50;3.17;;;9.40;99.90;;;;;;4249835;27;20046;-83
2022/05/31 02:31:40;;;;;;;5.22;3.20;;;9.50;99.90;;;;;;4249649;27;20446;-83
2022/05/31 02:33:41;;;;;;;4.53;2.60;;;9.80;99.90;;;;;;4230979;28;20044;-83
2022/05/31 02:35:42;;;;;;;6.25;2.90;;;9.40;99.90;;;;;;4249585;27;20039;-82
2022/05/31 02:37:43;;;;;;;5.00;3.20;;;9.80;99.90;;;;;;4248670;27;20051;-83
2022/05/31 02:39:43;;;;;;;4.15;2.90;;;9.50;99.90;;;;;;4231516;28;20097;-82
2022/05/31 02:41:44;;;;;;;5.18;2.88;;;9.70;99.90;;;;;;4231710;28;20062;-82
2022/05/31 02:43:45;;;;;;;7.20;3.00;;;9.80;99.90;;;;;;4249357;27;20106;-83
2022/05/31 02:45:46;;;;;;;4.97;3.63;;;9.50;99.90;;;;;;4231291;28;20054;-83
2022/05/31 02:47:46;;;;;;;3.78;2.72;;;9.50;99.90;;;;;;4249756;27;20043;-82
2022/05/31 02:49:47;;;;;;;4.88;3.30;;;9.50;99.90;;;;;;4231138;28;20047;-83
2022/05/31 02:51:49;;;;;;;4.97;3.05;;;9.90;99.90;;;;;;4249335;27;20047;-83
2022/05/31 02:53:49;;;;;;;4.20;3.13;;;10.10;99.90;;;;;;4248780;27;20483;-83
2022/05/31 02:55:50;;;;;;;6.25;3.40;;;9.50;99.90;;;;;;4249492;27;20042;-82
2022/05/31 02:57:51;;;;;;;5.05;3.10;;;9.50;99.90;;;;;;4249421;27;20047;-83
2022/05/31 02:59:51;;;;;;;4.95;3.13;;;9.50;99.90;;;;;;4231088;28;20126;-82
2022/05/31 03:01:52;;;;;;;5.60;3.22;;;9.60;99.90;;;;;;4249534;27;20095;-83
2022/05/31 03:03:54;;;;;;;5.70;2.78;;;9.50;99.90;;;;;;4248763;27;20043;-83
2022/05/31 03:05:55;;;;;;;6.28;3.20;;;9.50;99.90;;;;;;4249326;27;20441;-83
2022/05/31 03:07:55;;;;;;;6.18;3.10;;;9.50;99.90;;;;;;4249170;27;20035;-82
2022/05/31 03:09:56;;;;;;;5.90;2.67;;;9.50;99.90;;;;;;4249164;27;20079;-83
2022/05/31 03:12:02;;;;;;;4.60;2.85;;;9.50;99.90;;;;;;4249158;27;20047;-83
2022/05/31 03:14:28;;;;;;;5.25;2.97;;;9.50;99.90;;;;;;4249078;27;20050;-83
2022/05/31 03:16:28;;;;;;;5.55;3.40;;;9.50;99.90;;;;;;4248626;27;20575;-82
2022/05/31 03:18:36;;;;;;;5.85;3.05;;;9.70;99.90;;;;;;4248939;27;20039;-83
2022/05/31 03:20:45;;;;;;;5.63;3.22;;;9.50;99.90;;;;;;4248702;27;20039;-82
2022/05/31 03:22:49;;;;;;;;;;;9.50;99.90;;;;;;4231149;28;20407;-83
2022/05/31 03:24:57;;;;;;;4.32;2.70;;;9.40;99.90;;;;;;4248350;27;19919;-83
2022/05/31 03:27:02;;;;;;;5.00;3.40;;;9.50;99.90;;;;;;4248514;27;20043;-83
2022/05/31 03:29:04;;;;;;;4.13;2.65;;;9.90;99.90;;;;;;4229957;28;20462;-83
2022/05/31 03:31:05;;;;;;;3.45;2.70;;;10.10;99.90;;;;;;4248297;27;20043;-82
2022/05/31 03:33:09;;;;;;;4.75;3.05;;;9.50;99.90;;;;;;4248483;27;20073;-83
2022/05/31 03:35:10;;;;;;;6.05;2.97;;;9.50;99.90;;;;;;4230633;28;20046;-83
2022/05/31 03:37:11;;;;;;;4.25;2.70;;;9.50;99.90;;;;;;4248443;27;20593;-83
2022/05/31 03:39:11;;;;;;;5.13;2.70;;;10.40;99.90;;;;;;4230210;28;20051;-84
2022/05/31 03:41:12;;;;;;;5.22;3.20;;;9.50;99.90;;;;;;4248675;27;20407;-83
2022/05/31 03:43:13;;;;;;;11.57;3.70;;;9.50;99.90;;;;;;4248757;27;20053;-84
2022/05/31 03:45:14;;;;;;;5.15;2.92;;;9.40;99.90;;;;;;4235230;27;20071;-84
2022/05/31 03:47:15;;;;;;;4.03;2.90;;;10.20;99.90;;;;;;4213274;28;20123;-84
2022/05/31 03:49:17;;;;;;;3.67;2.42;;;9.70;99.90;;;;;;4230974;28;20487;-83
2022/05/31 03:51:17;;;;;;;4.82;2.97;;;9.40;99.90;;;;;;4230908;28;20039;-83
2022/05/31 03:53:18;;;;;;;8.15;3.42;;;9.40;99.90;;;;;;4231296;28;20559;-83
2022/05/31 03:55:19;;;;;;;4.53;2.72;;;9.40;99.90;;;;;;4231111;28;20088;-84
2022/05/31 03:57:20;;;;;;;6.95;3.13;;;9.50;99.90;;;;;;4213097;28;20535;-81
2022/05/31 03:59:21;;;;;;;5.53;3.05;;;9.60;99.90;;;;;;4231384;28;20047;-82
2022/05/31 04:01:22;;;;;;;6.00;2.85;;;10.00;99.90;;;;;;4231320;28;20050;-82
2022/05/31 04:03:23;;;;;;;4.65;3.10;;;9.60;99.90;;;;;;4231207;28;20047;-82
2022/05/31 04:05:23;;;;;;;6.63;2.97;;;9.50;99.90;;;;;;4231960;28;20047;-83
2022/05/31 04:07:24;;;;;;;6.10;3.08;;;9.80;99.90;;;;;;4231406;28;20039;-83
2022/05/31 04:09:25;;;;;;;6.03;3.20;;;9.50;99.90;;;;;;4231693;28;20499;-83
2022/05/31 04:11:25;;;;;;;4.65;3.13;;;9.50;99.90;;;;;;4231519;28;20051;-83
2022/05/31 04:13:28;;;;;;;4.28;2.75;;;9.50;99.90;;;;;;4230787;28;20044;-82
2022/05/31 04:15:29;;;;;;;4.72;2.78;;;9.60;99.90;;;;;;4248756;27;20050;-83
2022/05/31 04:17:30;;;;;;;5.03;3.13;;;9.50;99.90;;;;;;4228665;28;20047;-82
2022/05/31 04:19:31;;;;;;;4.63;2.97;;;9.50;99.90;;;;;;4241451;27;20042;-83
2022/05/31 04:21:32;;;;;;;4.45;2.88;;;9.50;99.90;;;;;;4230934;28;20055;-83
2022/05/31 04:26:05;;;;;;;6.65;2.97;;;9.70;99.90;;;;;;4231074;28;20055;-83
2022/05/31 04:28:06;;;;;;;4.40;2.55;;;9.60;99.90;;;;;;4230996;28;20089;-83
2022/05/31 04:30:09;;;;;;;4.65;2.95;;;9.80;99.90;;;;;;4230888;28;20097;-83
2022/05/31 04:32:10;;;;;;;4.88;2.90;;;9.60;99.90;;;;;;4230582;28;20036;-82
2022/05/31 04:34:10;;;;;;;3.63;2.75;;;9.70;99.90;;;;;;4230124;28;20088;-83
2022/05/31 04:36:13;;;;;;;7.93;3.05;;;9.70;99.90;;;;;;4230607;28;20122;-83
2022/05/31 04:38:16;;;;;;;5.07;3.53;;;9.60;99.90;;;;;;4232790;28;20089;-83
2022/05/31 04:40:17;;;;;;;4.88;3.08;;;9.70;99.90;;;;;;4230702;28;20051;-83
2022/05/31 04:42:17;;;;;;;4.53;3.13;;;9.60;99.90;;;;;;4230536;28;20127;-83
2022/05/31 04:44:19;;;;;;;6.35;3.70;;;9.60;99.90;;;;;;4230208;28;20543;-83
2022/05/31 04:46:22;;;;;;;5.43;3.47;;;9.90;99.90;;;;;;4230903;28;20047;-83
2022/05/31 04:48:23;;;;;;;5.72;3.47;;;9.70;99.90;;;;;;4230763;28;20520;-83
2022/05/31 04:50:24;;;;;;;5.53;3.47;;;9.70;99.90;;;;;;4230706;28;20081;-83
2022/05/31 04:52:25;;;;;;;4.57;3.65;;;9.70;99.90;;;;;;4230577;28;20050;-83
2022/05/31 04:54:30;;;;;;;6.13;3.42;;;9.70;99.90;;;;;;4213117;28;20052;-83
2022/05/31 04:56:32;;;;;;;8.60;4.10;;;9.70;99.90;;;;;;4232969;28;20411;-82
2022/05/31 04:58:32;;;;;;;6.38;3.33;;;9.70;99.90;;;;;;4232815;28;20503;-83
2022/05/31 05:00:33;;;;;;;6.25;3.40;;;10.10;99.90;;;;;;4231836;28;20039;-83
2022/05/31 05:02:34;;;;;;;5.57;3.38;;;10.80;99.90;;;;;;4232843;28;20475;-83
2022/05/31 05:04:34;;;;;;;5.45;3.70;;;9.80;99.90;;;;;;4232144;28;20483;-83
2022/05/31 05:06:35;;;;;;;5.78;3.40;;;9.80;99.90;;;;;;4230011;28;20052;-83
2022/05/31 05:08:36;;;;;;;7.32;3.90;;;9.90;99.90;;;;;;4230529;28;20048;-83
2022/05/31 05:10:43;;;;;;;6.45;3.90;;;10.00;99.90;;;;;;4230627;28;20488;-82
2022/05/31 05:12:44;;;;;;;4.97;3.13;;;10.50;99.90;;;;;;4232377;28;20035;-82
2022/05/31 05:14:45;;;;;;;5.28;3.75;;;9.90;99.90;;;;;;4213043;28;20051;-83
2022/05/31 05:16:46;;;;;;;6.93;4.20;;;10.00;99.90;;;;;;4230798;28;20579;-83
2022/05/31 05:18:46;;;;;;;5.70;4.03;;;9.90;99.90;;;;;;4230959;28;20036;-83
2022/05/31 05:20:47;;;;;;;4.63;3.08;;;9.90;99.90;;;;;;4229873;28;20093;-82
2022/05/31 05:22:49;;;;;;;9.18;3.65;;;10.70;99.90;;;;;;4229932;28;20043;-82
2022/05/31 05:24:50;;;;;;;6.10;3.83;;;10.40;99.90;;;;;;4212462;28;20048;-82
2022/05/31 05:26:51;;;;;;;7.20;3.35;;;10.00;99.90;;;;;;4230627;28;20100;-83
2022/05/31 05:31:24;;;;;;;5.35;3.83;;;10.00;99.90;;;;;;4230335;28;20043;-82
2022/05/31 05:33:27;;;;;;;5.18;3.50;;;10.10;99.90;;;;;;4211442;28;20043;-82
2022/05/31 05:35:27;;;;;;;7.55;3.95;;;10.00;99.90;;;;;;4229227;28;20488;-83
2022/05/31 05:37:28;;;;;;;6.35;3.50;;;10.20;99.90;;;;;;4229411;28;20039;-83
2022/05/31 05:39:29;;;;;;;5.28;3.58;;;10.20;99.90;;;;;;4211455;28;20488;-82
2022/05/31 05:41:31;;;;;;;6.25;4.07;;;10.30;99.90;;;;;;4229729;28;20040;-83
2022/05/31 05:43:32;;;;;;;6.60;3.70;;;10.30;99.90;;;;;;4229324;28;20044;-83
2022/05/31 05:45:33;;;;;;;9.23;4.38;;;10.30;99.90;;;;;;4229331;28;20055;-83
2022/05/31 05:47:33;;;;;;;6.72;4.35;;;10.40;99.90;;;;;;4229511;28;20047;-83
2022/05/31 05:49:35;;;;;;;8.80;4.18;;;10.40;99.90;;;;;;4229271;28;20113;-83
2022/05/31 05:51:36;;;;;;;5.65;3.90;;;10.50;99.90;;;;;;4229207;28;20048;-83
2022/05/31 05:53:36;;;;;;;6.82;4.00;;;10.50;99.90;;;;;;4229374;28;20559;-83
2022/05/31 05:55:39;;;;;;;6.80;3.67;;;10.60;99.90;;;;;;4229440;28;20047;-83
2022/05/31 05:57:40;;;;;;;6.00;4.07;;;10.60;99.90;;;;;;4228905;28;20040;-83
2022/05/31 05:59:41;;;;;;;8.48;4.40;;;10.70;99.90;;;;;;4229307;28;20582;-84
2022/05/31 06:01:49;;;;;;;9.00;4.25;;;10.40;99.90;;;;;;4229888;28;20040;-83
2022/05/31 06:04:13;;;;;;;7.68;4.45;;;10.70;99.90;;;;;;4212276;28;20047;-83
2022/05/31 06:06:15;;;;;;;6.00;4.15;;;10.80;99.90;;;;;;4230341;28;20089;-82
2022/05/31 06:08:38;;;;;;;7.25;4.28;;;10.80;99.90;;;;;;4230073;28;20044;-83
2022/05/31 06:10:41;;;;;;;6.70;4.50;;;10.80;99.90;;;;;;4229721;28;20127;-83
2022/05/31 06:12:48;;;;;;;5.68;4.35;;;10.90;99.90;;;;;;4214809;28;20040;-83
2022/05/31 06:15:04;;;;;;;6.88;3.72;;;10.90;99.90;;;;;;4197909;28;20095;-83
2022/05/31 06:17:16;;;;;;;9.13;4.25;;;11.00;99.90;;;;;;4214911;28;20056;-83
2022/05/31 06:19:23;;;;;;;9.60;4.50;;;11.10;99.90;;;;;;4232423;28;20071;-83
2022/05/31 06:21:25;;;;;;;7.18;4.50;;;11.10;99.90;;;;;;4232708;28;20066;-83
2022/05/31 06:23:25;;;;;;;6.15;4.05;;;11.10;99.90;;;;;;4232793;28;20040;-83
2022/05/31 06:25:26;;;;;;;6.63;4.32;;;11.20;99.90;;;;;;4214602;28;20086;-83
2022/05/31 06:27:27;;;;;;;8.40;4.82;;;11.20;99.90;;;;;;4232741;28;20043;-83
2022/05/31 06:29:28;;;;;;;7.20;4.35;;;11.30;99.90;;;;;;4232383;28;20503;-83
2022/05/31 06:31:29;;;;;;;7.03;4.68;;;11.30;99.90;;;;;;4214843;28;20044;-83
2022/05/31 06:33:30;;;;;;;7.72;4.82;;;11.40;99.90;;;;;;4232731;28;20127;-83
2022/05/31 06:35:31;;;;;;;6.22;4.22;;;11.40;99.90;;;;;;4214903;28;20048;-83
2022/05/31 06:37:32;;;;;;;7.40;4.88;;;11.50;99.90;;;;;;4232781;28;20036;-83
2022/05/31 06:39:37;;;;;;;10.70;4.70;;;11.60;99.90;;;;;;4232585;28;20053;-83
2022/05/31 06:41:37;;;;;;;6.85;4.88;;;11.60;99.90;;;;;;4232311;28;20035;-83
2022/05/31 06:43:38;;;;;;;7.82;5.30;;;11.60;99.90;;;;;;4214055;28;20098;-83
2022/05/31 06:45:39;;;;;;;11.48;4.88;;;11.70;99.90;;;;;;4232491;28;20044;-83
2022/05/31 06:47:39;;;;;;;7.70;4.47;;;11.70;99.90;;;;;;4232423;28;20472;-83
2022/05/31 06:49:41;;;;;;;9.77;5.22;;;11.70;99.90;;;;;;4232467;28;20048;-84
2022/05/31 06:58:30;;;;;;;8.00;4.30;;;12.10;99.90;;;;;;4232162;28;20051;-84
2022/05/31 07:00:31;;;;;;;8.10;4.13;;;12.10;99.90;;;;;;4232340;28;20572;-83
2022/05/31 07:02:32;;;;;;;7.22;4.65;;;12.10;99.90;;;;;;4232011;28;20043;-84
2022/05/31 07:04:37;;;;;;;6.72;4.25;;;12.20;99.90;;;;;;4231886;28;20096;-84
2022/05/31 07:06:37;;;;;;;6.63;4.75;;;12.30;99.90;;;;;;4232491;28;20047;-84
2022/05/31 07:08:38;;;;;;;7.03;4.53;;;12.30;99.90;;;;;;4197100;28;20041;-83
2022/05/31 07:10:39;;;;;;;12.02;5.30;;;12.40;99.90;;;;;;4232009;28;20453;-83
2022/05/31 07:12:42;;;;;;;10.48;4.70;;;12.70;99.90;;;;;;4232084;28;20099;-83
2022/05/31 07:14:42;;;;;;;7.97;3.97;;;12.60;99.90;;;;;;4233642;28;20557;-83
2022/05/31 07:16:45;;;;;;;6.90;3.95;;;12.70;99.90;;;;;;4232030;28;20044;-83
2022/05/31 07:18:46;;;;;;;5.38;3.50;;;12.80;99.90;;;;;;4231483;28;20044;-82
2022/05/31 07:20:46;;;;;;;6.47;4.15;;;12.80;99.90;;;;;;4231786;28;20051;-83
2022/05/31 07:22:47;;;;;;;9.20;4.57;;;13.00;99.90;;;;;;4230914;28;20048;-83
2022/05/31 07:24:48;;;;;;;6.22;3.60;;;13.20;99.90;;;;;;4213576;28;20540;-83
2022/05/31 07:26:48;;;;;;;6.40;4.22;;;13.30;99.90;;;;;;4231899;28;20040;-83
2022/05/31 07:28:49;;;;;;;6.07;3.95;;;13.40;99.90;;;;;;4232091;28;20046;-84
2022/05/31 07:30:50;;;;;;;5.03;3.13;;;;;;;;;;4231603;28;20039;-83
2022/05/31 07:32:50;;;;;;;4.95;2.95;;;13.50;99.90;;;;;;4231768;28;20040;-83
2022/05/31 07:34:52;;;;;;;7.50;4.22;;;13.70;99.90;;;;;;4231864;28;20508;-83
2022/05/31 07:36:53;;;;;;;5.57;3.60;;;13.80;99.90;;;;;;4232294;28;20051;-83
2022/05/31 07:38:54;;;;;;;4.60;3.20;;;13.90;99.90;;;;;;4231960;28;20050;-83
2022/05/31 07:40:55;;;;;;;5.07;3.35;;;14.10;99.90;;;;;;4231053;28;20481;-83
2022/05/31 07:42:56;;;;;;;5.45;3.33;;;;;;;;;;4231427;28;20108;-83
2022/05/31 07:44:57;;;;;;;7.78;3.75;;;14.10;99.90;;;;;;4213789;28;20055;-83
2022/05/31 07:46:59;;;;;;;8.88;3.50;;;14.40;99.90;;;;;;4231463;28;20090;-83
2022/05/31 07:49:00;;;;;;;5.60;3.10;;;14.50;99.90;;;;;;4231702;28;20411;-83
2022/05/31 07:51:02;;;;;;;5.80;3.45;;;14.60;99.90;;;;;;4230908;28;20057;-83
2022/05/31 07:53:03;;;;;;;4.78;2.95;;;14.60;99.90;;;;;;4231329;28;20054;-84
2022/05/31 07:55:04;;;;;;;4.18;3.30;;;14.70;99.90;;;;;;4213082;28;20040;-83
2022/05/31 07:57:05;;;;;;;4.90;2.80;;;14.80;99.90;;;;;;4213285;28;20044;-83
2022/05/31 07:59:06;;;;;;;8.13;2.95;;;14.70;99.90;;;;;;4231387;28;20495;-83
2022/05/31 08:01:13;;;;;;;5.55;3.30;;;14.90;99.90;;;;;;4195865;28;20121;-83
2022/05/31 08:03:13;;;;;;;5.07;3.20;;;15.20;99.90;;;;;;4196395;28;20040;-83
2022/05/31 08:05:14;;;;;;;4.30;2.72;;;;;;;;;;4231373;28;20050;-82
2022/05/31 08:07:15;;;;;;;4.40;2.97;;;15.50;99.90;;;;;;4213129;28;20462;-84
2022/05/31 08:09:16;;;;;;;7.22;3.17;;;15.70;99.90;;;;;;4230696;28;20075;-83
2022/05/31 08:11:20;;;;;;;6.50;3.28;;;15.80;99.90;;;;;;4231264;28;20044;-83
2022/05/31 08:13:21;;;;;;;3.85;2.65;;;16.00;99.90;;;;;;4231158;28;20054;-83
2022/05/31 08:15:22;;;;;;;6.28;3.38;;;16.00;99.90;;;;;;4230921;28;20055;-83
2022/05/31 08:17:23;;;;;;;6.40;3.85;;;16.20;99.90;;;;;;4231095;28;20047;-83
2022/05/31 08:19:23;;;;;;;5.30;2.60;;;16.30;99.90;;;;;;4230860;28;20045;-83
2022/05/31 08:22:14;;;;;;;3.97;2.63;;;16.60;99.90;;;;;;4230708;28;20052;-83
2022/05/31 08:24:14;;;;;;;7.00;2.67;;;16.60;96.20;;;;;;4212268;28;20119;-84
2022/05/31 08:26:15;;;;;;;4.20;2.75;;;16.50;98.20;;;;;;4212887;28;20462;-83
2022/05/31 08:28:17;;;;;;;3.65;2.63;;;16.50;98.10;;;;;;4231080;28;20065;-84
2022/05/31 08:30:17;;;;;;;3.80;2.65;;;16.60;98.50;;;;;;4230849;28;20066;-84
2022/05/31 08:32:18;;;;;;;3.35;2.75;;;16.70;98.30;;;;;;4212656;28;20044;-84
2022/05/31 08:34:19;;;;;;;3.95;2.58;;;16.80;98.10;;;;;;4212542;28;20127;-84
2022/05/31 08:36:20;;;;;;;2.60;2.15;;;16.90;97.60;;;;;;4230610;28;20047;-84
2022/05/31 08:38:22;;;;;;;7.03;2.42;;;16.80;96.50;;;;;;4230763;28;20566;-84
2022/05/31 08:40:23;;;;;;;3.35;2.55;;;16.70;96.50;;;;;;4230491;28;20052;-84
2022/05/31 08:42:52;;;;;;;4.18;2.35;;;16.70;96.90;;;;;;4231046;28;20035;-84
2022/05/31 08:45:03;;;;;;;2.92;2.17;;;17.00;96.00;;;;;;4231080;28;20150;-84
2022/05/31 08:47:36;;;;;;;4.38;2.20;;;17.20;95.80;;;;;;4230859;28;20073;-84
2022/05/31 08:52:04;;;;;;;4.65;2.10;;;17.70;94.70;;;;;;4230375;28;20055;-84
2022/05/31 08:58:55;;;;;;;2.67;2.00;;;18.30;93.60;;;;;;4230574;28;20047;-84
2022/05/31 09:00:57;;;;;;;5.25;1.95;;;18.60;92.10;;;;;;4195706;28;20052;-84
2022/05/31 09:03:07;;;;;;;4.50;2.30;;;18.70;92.00;;;;;;4230424;28;20080;-84
2022/05/31 09:05:23;;;;;;;4.90;2.25;;;18.80;91.70;;;;;;4230532;28;20090;-83
2022/05/31 09:07:31;;;;;;;7.97;2.28;;;18.50;82.40;;;;;;4230210;28;20062;-84
2022/05/31 09:09:55;;;;;;;5.22;2.22;;;18.30;90.00;;;;;;4230371;28;20048;-84
2022/05/31 09:12:40;;;;;;;5.20;2.30;;;18.30;90.30;;;;;;4229091;28;20051;-84
2022/05/31 09:15:03;;;;;;;3.55;2.22;;;18.20;87.40;;;;;;4230419;28;20069;-84
2022/05/31 09:17:12;;;;;;;3.17;1.88;;;18.20;80.20;;;;;;4229279;28;20108;-84
2022/05/31 09:19:20;;;;;;;8.20;2.20;;;18.00;86.00;;;;;;4230105;28;20047;-84
2022/05/31 09:21:34;;;;;;;5.53;2.60;;;17.80;88.00;;;;;;4229976;28;20052;-84
2022/05/31 09:23:40;;;;;;;5.03;2.25;;;17.80;88.20;;;;;;4230342;28;20054;-84
2022/05/31 09:25:42;;;;;;;5.97;2.05;;;18.00;90.00;;;;;;4230350;28;20082;-84
2022/05/31 09:27:47;;;;;;;3.70;2.10;;;18.10;89.30;;;;;;4233496;28;20520;-84
2022/05/31 09:30:26;;;;;;;7.07;2.20;;;18.10;87.10;;;;;;4212471;28;20543;-84
2022/05/31 09:33:06;;;;;;;4.53;2.20;;;18.30;86.20;;;;;;4230213;28;20501;-84
2022/05/31 09:35:29;;;;;;;7.32;2.13;;;18.60;85.00;;;;;;4230084;28;20047;-84
2022/05/31 09:37:39;;;;;;;5.05;2.17;;;18.70;84.90;;;;;;4229912;28;20050;-84
2022/05/31 09:40:08;;;;;;;3.95;2.00;;;18.90;86.50;;;;;;4229966;28;20056;-84
2022/05/31 09:42:18;;;;;;;;;;;19.20;82.80;;;;;;4212677;28;20044;-84
2022/05/31 09:44:23;;;;;;;4.57;2.10;;;19.60;84.80;;;;;;4230269;28;19973;-84
2022/05/31 09:46:44;;;;;;;3.55;1.90;;;19.90;85.20;;;;;;4231546;27;20043;-84
2022/05/31 09:48:48;;;;;;;3.50;1.88;;;20.20;83.50;;;;;;4233429;28;20097;-84
2022/05/31 09:50:50;;;;;;;1.88;1.60;;;20.40;82.60;;;;;;4232923;28;20521;-84
2022/05/31 09:52:56;;;;;;;3.75;2.10;;;20.40;80.50;;;;;;4232954;28;20047;-84
2022/05/31 09:57:39;;;;;;;4.20;2.00;;;19.80;71.90;;;;;;4233440;28;20404;-84
2022/05/31 09:59:49;;;;;;;5.38;2.40;;;19.70;79.60;;;;;;4214789;28;20040;-84
2022/05/31 10:01:49;;;;;;;9.45;2.80;;;19.70;79.40;;;;;;4233199;28;20043;-84
2022/05/31 10:04:00;;;;;;;7.55;2.25;;;20.10;80.50;;;;;;4214708;28;20123;-84
2022/05/31 10:06:10;;;;;;;6.95;2.08;;;20.20;78.60;;;;;;4233156;28;20097;-84
2022/05/31 10:08:30;;;;;;;4.78;2.25;;;20.10;75.60;;;;;;4233043;28;20047;-84
2022/05/31 10:10:35;;;;;;;4.47;1.98;;;20.20;75.90;;;;;;4233109;28;20036;-84
2022/05/31 10:12:39;;;;;;;4.03;2.10;;;20.50;77.70;;;;;;4232952;28;20123;-84
2022/05/31 10:14:46;;;;;;;6.35;1.83;;;20.50;76.30;;;;;;4233039;28;20043;-84
2022/05/31 10:16:49;;;;;;;2.92;1.92;;;20.30;74.80;;;;;;4214873;28;20051;-84
2022/05/31 10:18:56;;;;;;;3.97;1.98;;;20.10;74.70;;;;;;4232495;28;20075;-84
2022/05/31 10:20:59;;;;;;;6.22;2.60;;;20.10;73.80;;;;;;4232454;28;20043;-84
2022/05/31 10:23:13;;;;;;;3.85;2.00;;;20.00;74.30;;;;;;4232734;28;20040;-85
2022/05/31 10:25:21;;;;;;;4.60;1.90;;;19.80;70.10;;;;;;4214644;28;20047;-85
2022/05/31 10:27:28;;;;;;;4.65;1.63;;;19.60;70.70;;;;;;4214504;28;20052;-84
2022/05/31 10:29:33;;;;;;;6.05;1.80;;;19.60;69.80;;;;;;4232241;28;20039;-85
2022/05/31 10:31:40;;;;;;;4.90;2.03;;;19.60;71.70;;;;;;4214432;28;20048;-84
2022/05/31 10:33:48;;;;;;;4.47;1.90;;;19.60;71.10;;;;;;4214493;28;20547;-84
2022/05/31 10:36:06;;;;;;;5.32;1.75;;;19.50;72.20;;;;;;4232476;28;20043;-84
2022/05/31 10:38:18;;;;;;;3.85;1.58;;;19.50;69.30;;;;;;4232523;28;20205;-84
2022/05/31 10:40:22;;;;;;;7.38;2.00;;;19.30;70.50;;;;;;4232435;28;20071;-84
2022/05/31 10:42:23;;;;;;;4.25;2.00;;;19.00;70.10;;;;;;4232287;28;20043;-84
2022/05/31 10:44:32;;;;;;;3.70;1.88;;;18.80;71.30;;;;;;4232655;28;20043;-84
2022/05/31 10:46:35;;;;;;;4.80;1.60;;;18.70;71.10;;;;;;4197761;28;20052;-84
2022/05/31 10:48:46;;;;;;;3.35;1.80;;;18.60;72.80;;;;;;4232206;28;20112;-83
2022/05/31 10:51:03;;;;;;;3.45;2.08;;;18.60;71.90;;;;;;4232203;28;20050;-84
2022/05/31 10:53:22;;;;;;;3.35;1.75;;;18.50;70.70;;;;;;4232177;28;20042;-84
2022/05/31 10:55:50;;;;;;;2.15;1.73;;;18.40;71.50;;;;;;4232347;28;20043;-84
2022/05/31 10:58:31;;;;;;;6.67;1.73;;;18.40;72.50;;;;;;4203006;28;20139;-84
2022/05/31 11:00:44;;;;;;;2.30;1.60;;;18.50;73.80;;;;;;4213514;28;20115;-84
2022/05/31 11:03:28;;;;;;;2.67;1.75;;;18.50;73.10;;;;;;4213800;28;20050;-84
2022/05/31 11:05:54;;;;;;;4.03;1.70;;;18.50;72.30;;;;;;4223338;28;20101;-84
2022/05/31 11:13:47;;;;;;;3.55;2.00;;;18.80;74.20;;;;;;4231716;28;20104;-83
2022/05/31 11:16:08;;;;;;;3.50;1.70;;;18.90;72.70;;;;;;4231766;28;20046;-84
2022/05/31 11:18:33;;;;;;;3.47;1.55;;;19.10;72.00;;;;;;4233028;28;20118;-84
2022/05/31 11:21:01;;;;;;;1.85;1.40;;;19.10;68.60;;;;;;4231967;28;20044;-84
2022/05/31 11:23:17;;;;;;;2.72;1.58;;;19.20;70.00;;;;;;4232055;28;20674;-84